This is the latest recevied weather packets stored in our database for station/object ON5MM-5. If no packets are shown the sender has not sent any weather packets the latest 10 day(s).
| Time | Temp. | Humidity | Pressure | Rain* | Wind** | Luminosity | Snow |
|---|---|---|---|---|---|---|---|
| 1777694702 | 11.11° C | 52% | 1021.3 hPa | 0 mm | 1.34 m/s, ° | - | - |
| 1777694403 | 11.67° C | 51% | 1021.4 hPa | 0 mm | 1.34 m/s, ° | - | - |
| 1777694103 | 11.67° C | 49% | 1021.4 hPa | 0 mm | 1.34 m/s, ° | - | - |
| 1777693802 | 13.33° C | 45% | 1021.6 hPa | 0 mm | 2.24 m/s, ° | - | - |
| 1777693502 | 12.78° C | 45% | 1021.6 hPa | 0 mm | 2.24 m/s, ° | - | - |
| 1777693203 | 11.67° C | 48% | 1021.4 hPa | 0 mm | 1.34 m/s, ° | - | - |
| 1777692903 | 11.67° C | 48% | 1021.4 hPa | 0 mm | 1.34 m/s, ° | - | - |
| 1777692603 | 10.56° C | 51% | 1021.4 hPa | 0 mm | 1.34 m/s, ° | - | - |
| 1777692303 | 10° C | 53% | 1021.3 hPa | 0 mm | 0 m/s | - | - |
| 1777692002 | 9.44° C | 54% | 1021.4 hPa | 0 mm | 0 m/s | - | - |
| 1777691702 | 8.89° C | 56% | 1021.4 hPa | 0 mm | 0 m/s | - | - |
| 1777691402 | 8.33° C | 57% | 1021.5 hPa | 0 mm | 0 m/s | - | - |
| 1777691102 | 8.33° C | 57% | 1021.5 hPa | 0 mm | 0 m/s | - | - |
| 1777690803 | 8.33° C | 58% | 1021.5 hPa | 0 mm | 0 m/s | - | - |
| 1777690502 | 8.33° C | 58% | 1021.4 hPa | 0 mm | 0 m/s | - | - |
| 1777690202 | 8.33° C | 59% | 1021.6 hPa | 0 mm | 0 m/s | - | - |
| 1777689902 | 8.33° C | 59% | 1021.6 hPa | 0 mm | 0 m/s | - | - |
| 1777689602 | 8.33° C | 57% | 1021.6 hPa | 0 mm | 0 m/s | - | - |
| 1777689303 | 8.33° C | 56% | 1021.7 hPa | 0 mm | 0 m/s | - | - |
| 1777689003 | 8.33° C | 56% | 1021.7 hPa | 0 mm | 0 m/s | - | - |
| 1777688702 | 8.33° C | 56% | 1021.7 hPa | 0 mm | 0 m/s | - | - |
| 1777688403 | 8.33° C | 57% | 1021.8 hPa | 0 mm | 0 m/s | - | - |
| 1777688103 | 8.33° C | 58% | 1021.8 hPa | 0 mm | 0 m/s | - | - |
| 1777687802 | 8.33° C | 58% | 1021.7 hPa | 0 mm | 0 m/s | - | - |
| 1777687502 | 7.78° C | 60% | 1021.8 hPa | 0 mm | 0 m/s | - | - |
* Rain latest hour (hover to see other rain measurements)
** Current wind speed in m/s (hover to see current wind gust speed)